Time;durP1;ratioP1;P1;durP2;ratioP2;P2;SDS_P1;SDS_P2;PMS_P1;PMS_P2;Temp;Humidity;BMP_temperature;BMP_pressure;BME280_temperature;BME280_humidity;BME280_pressure;Samples;Min_cycle;Max_cycle;Signal;HPM_P1;HPM_P2
2021/12/07 00:01:21;;;;;;;2.00;1.73;;;;;;;5.65;78.48;93644.00;5038806;28;20255;-62
2021/12/07 00:03:47;;;;;;;1.63;1.50;;;;;;;5.62;78.58;93639.91;5039621;28;20225;-62
2021/12/07 00:06:13;;;;;;;1.70;1.60;;;;;;;5.54;78.67;93632.03;5040863;28;20218;-61
2021/12/07 00:08:41;;;;;;;2.57;1.60;;;;;;;5.46;78.60;93637.22;5037862;28;20209;-62
2021/12/07 00:11:06;;;;;;;1.77;1.50;;;;;;;5.37;78.69;93630.31;5042529;28;20198;-61
2021/12/07 00:13:36;;;;;;;1.60;1.50;;;;;;;5.33;79.25;93626.38;5045042;28;20228;-61
2021/12/07 00:16:04;;;;;;;2.03;1.27;;;;;;;5.36;78.42;93629.47;5043228;28;20232;-62
2021/12/07 00:18:29;;;;;;;1.40;1.30;;;;;;;5.38;78.50;93624.13;5042212;28;20217;-61
2021/12/07 00:20:55;;;;;;;1.60;1.50;;;;;;;5.28;78.31;93626.84;5035956;28;20237;-61
2021/12/07 00:23:20;;;;;;;1.47;1.33;;;;;;;5.33;79.02;93632.41;5039093;28;20252;-60
2021/12/07 00:25:46;;;;;;;1.53;1.40;;;;;;;5.33;78.89;93621.16;5027878;28;20294;-62
2021/12/07 00:28:12;;;;;;;1.50;1.40;;;;;;;5.31;78.75;93616.91;5041868;28;20226;-63
2021/12/07 00:30:37;;;;;;;1.50;1.40;;;;;;;5.36;78.99;93621.66;5037126;28;20230;-61
2021/12/07 00:35:34;;;;;;;1.50;1.30;;;;;;;5.23;78.16;93648.13;5038271;28;20219;-61
2021/12/07 00:38:04;;;;;;;1.60;1.40;;;;;;;5.14;78.59;93643.84;5038264;28;20273;-61
2021/12/07 00:40:30;;;;;;;1.70;1.30;;;;;;;5.16;78.66;93641.91;5029622;28;20234;-61
2021/12/07 00:42:56;;;;;;;1.20;1.10;;;;;;;5.18;78.05;93641.75;5041920;28;20297;-60
2021/12/07 00:45:22;;;;;;;1.40;1.30;;;;;;;5.22;77.85;93633.47;5044408;28;20295;-60
2021/12/07 00:47:50;;;;;;;1.80;1.23;;;;;;;5.20;78.40;93638.03;5042577;28;20220;-62
2021/12/07 00:50:19;;;;;;;1.20;1.10;;;;;;;5.16;78.43;93631.50;5032657;28;20206;-60
2021/12/07 00:52:45;;;;;;;1.90;1.40;;;;;;;5.20;78.18;93638.03;5046043;28;20233;-61
2021/12/07 00:55:17;;;;;;;2.30;1.40;;;;;;;5.15;78.53;93629.84;5041472;28;20230;-61
2021/12/07 00:57:42;;;;;;;1.27;1.17;;;;;;;5.14;78.61;93633.44;5039491;28;20241;-63
2021/12/07 01:00:12;;;;;;;1.37;1.13;;;;;;;5.11;78.88;93625.91;5036971;28;20238;-60
2021/12/07 01:02:37;;;;;;;1.40;1.30;;;;;;;5.08;79.32;93636.66;5031133;28;20217;-61
2021/12/07 01:05:13;;;;;;;2.37;1.13;;;;;;;5.15;79.18;93632.44;5043771;28;20498;-61
2021/12/07 01:26:33;;;;;;;1.07;0.97;;;;;;;5.12;79.50;93627.53;5045132;28;20288;-59
2021/12/07 01:28:59;;;;;;;0.80;0.80;;;;;;;5.06;79.79;93628.16;5044555;28;20202;-60
2021/12/07 01:31:51;;;;;;;1.10;1.00;;;;;;;5.12;79.79;93630.16;5047141;28;20267;-63
2021/12/07 01:37:13;;;;;;;0.87;0.87;;;;;;;4.99;81.85;93612.31;5045800;28;20232;-60
2021/12/07 01:47:38;;;;;;;1.57;1.07;;;;;;;5.11;81.95;93604.25;5044405;28;20209;-61
2021/12/07 02:00:23;;;;;;;1.17;1.07;;;;;;;5.28;81.96;93585.94;5034761;28;20270;-62
2021/12/07 02:02:49;;;;;;;3.47;1.40;;;;;;;5.43;81.91;93588.00;5043557;28;20222;-62
2021/12/07 02:05:15;;;;;;;1.37;1.27;;;;;;;5.37;81.52;93578.97;5043447;28;20213;-61
2021/12/07 02:07:41;;;;;;;2.00;1.10;;;;;;;5.41;80.95;93576.91;5045101;28;20238;-60
2021/12/07 02:10:15;;;;;;;2.20;1.20;;;;;;;5.36;81.43;93577.34;5041360;28;20237;-61
2021/12/07 02:12:44;;;;;;;1.70;1.17;;;;;;;5.42;81.12;93573.31;5043629;28;20225;-61
2021/12/07 02:15:11;;;;;;;3.50;1.10;;;;;;;5.53;80.67;93575.63;5033404;28;20234;-60
2021/12/07 02:17:37;;;;;;;1.17;0.90;;;;;;;5.32;80.03;93578.66;5042773;28;20229;-60
2021/12/07 02:20:05;;;;;;;1.33;1.00;;;;;;;5.21;79.79;93573.69;5045697;28;20202;-61
2021/12/07 02:22:31;;;;;;;2.10;0.73;;;;;;;5.12;79.59;93580.66;5044230;28;20233;-60
2021/12/07 02:24:57;;;;;;;2.73;0.80;;;;;;;4.96;80.34;93578.75;5042132;28;20226;-61
2021/12/07 02:27:23;;;;;;;1.33;0.80;;;;;;;4.91;80.51;93574.97;5043766;28;20237;-61
2021/12/07 02:29:49;;;;;;;4.00;0.97;;;;;;;4.78;80.35;93563.16;5043322;28;20289;-60
2021/12/07 02:32:15;;;;;;;4.57;0.90;;;;;;;4.79;80.22;93577.84;5041930;28;20202;-60
2021/12/07 02:34:53;;;;;;;0.87;0.70;;;;;;;4.84;80.23;93573.00;5046909;28;20209;-65
2021/12/07 02:37:24;;;;;;;1.83;0.80;;;;;;;4.69;79.60;93573.69;5041018;28;20226;-60
2021/12/07 02:39:49;;;;;;;1.30;0.80;;;;;;;4.62;79.84;93574.31;5034104;28;20221;-64
2021/12/07 02:42:15;;;;;;;3.50;1.10;;;;;;;4.47;80.06;93569.78;5044652;28;20225;-61
2021/12/07 02:44:41;;;;;;;1.00;0.90;;;;;;;4.41;80.51;93569.41;5043778;28;20225;-62
2021/12/07 02:47:07;;;;;;;4.90;1.10;;;;;;;4.40;80.51;93570.38;5045629;28;20209;-60
2021/12/07 02:49:33;;;;;;;1.47;1.20;;;;;;;4.49;80.02;93567.81;5048146;28;20236;-60
2021/12/07 02:51:59;;;;;;;4.27;0.90;;;;;;;4.46;79.77;93571.53;5039977;28;20222;-61
2021/12/07 02:54:24;;;;;;;3.17;1.20;;;;;;;4.50;79.62;93564.28;5034030;28;20225;-61
2021/12/07 02:56:51;;;;;;;1.57;0.90;;;;;;;4.42;79.86;93568.44;5045015;28;20229;-60
2021/12/07 02:59:18;;;;;;;2.87;0.90;;;;;;;4.44;79.85;93570.91;5040646;28;20239;-62
2021/12/07 03:01:49;;;;;;;1.33;1.00;;;;;;;4.37;79.78;93588.88;5042303;28;20198;-62
2021/12/07 03:04:23;;;;;;;1.00;0.80;;;;;;;4.40;79.97;93572.16;5045415;28;20214;-59
2021/12/07 03:26:02;;;;;;;0.87;0.70;;;;;;;3.85;79.63;93575.72;4981196;28;20246;-61
2021/12/07 03:28:30;;;;;;;0.57;0.57;;;;;;;3.86;79.17;93568.72;4976690;28;20258;-61
2021/12/07 03:30:55;;;;;;;1.23;0.73;;;;;;;3.84;79.32;93563.66;4977341;28;20296;-60
2021/12/07 03:33:21;;;;;;;0.70;0.70;;;;;;;3.89;78.56;93569.25;4980630;28;20371;-63
2021/12/07 03:35:47;;;;;;;0.80;0.80;;;;;;;3.75;78.81;93565.38;4964321;28;20227;-61
2021/12/07 03:38:13;;;;;;;0.80;0.60;;;;;;;3.71;78.88;93564.00;4972316;28;20590;-64
2021/12/07 03:40:39;;;;;;;0.90;0.70;;;;;;;3.56;79.77;93554.28;4977481;28;20216;-61
2021/12/07 03:43:05;;;;;;;1.10;0.80;;;;;;;3.65;79.38;93571.59;4976649;28;20255;-61
2021/12/07 03:45:32;;;;;;;0.90;0.83;;;;;;;3.61;78.75;93568.47;4961206;28;20279;-61
2021/12/07 03:47:59;;;;;;;0.87;0.70;;;;;;;3.56;78.50;93572.47;4965058;28;20271;-61
2021/12/07 03:50:25;;;;;;;1.23;0.70;;;;;;;3.42;79.66;93560.75;5040553;28;20205;-60
2021/12/07 03:52:51;;;;;;;1.47;0.67;;;;;;;3.38;79.42;93562.81;5038760;28;20260;-62
2021/12/07 03:55:17;;;;;;;1.00;0.70;;;;;;;3.40;79.12;93563.50;5034336;28;20272;-63
2021/12/07 03:57:43;;;;;;;1.67;0.70;;;;;;;3.37;79.06;93566.41;5036727;28;20229;-64
2021/12/07 04:00:14;;;;;;;0.90;0.70;;;;;;;3.37;79.26;93569.00;5041327;28;20213;-61
2021/12/07 04:02:41;;;;;;;0.67;0.60;;;;;;;3.42;79.29;93579.78;5040481;28;20233;-64
2021/12/07 04:05:12;;;;;;;0.90;0.60;;;;;;;3.29;79.04;93571.50;5042468;28;20231;-63
2021/12/07 04:07:38;;;;;;;0.90;0.60;;;;;;;3.32;79.24;93573.81;5035987;28;20247;-63
2021/12/07 04:10:06;;;;;;;0.60;0.60;;;;;;;3.34;78.97;93574.44;5046974;28;20221;-64
2021/12/07 04:12:32;;;;;;;0.73;0.73;;;;;;;3.35;78.90;93573.50;5042121;28;20218;-62
2021/12/07 04:14:58;;;;;;;2.83;0.70;;;;;;;3.36;79.12;93572.53;5042845;28;20221;-64
2021/12/07 04:17:23;;;;;;;0.97;0.80;;;;;;;3.43;78.72;93576.22;5035398;28;20260;-63
2021/12/07 04:19:49;;;;;;;0.80;0.80;;;;;;;3.25;78.45;93573.53;5043416;28;20217;-60
2021/12/07 04:22:14;;;;;;;0.60;0.60;;;;;;;3.29;78.44;93574.91;5033584;28;20224;-61
2021/12/07 04:24:40;;;;;;;0.60;0.60;;;;;;;3.19;78.21;93568.09;5039268;28;20278;-61
2021/12/07 04:27:05;;;;;;;1.37;0.60;;;;;;;3.14;78.25;93567.72;5036921;28;20277;-62
2021/12/07 04:29:31;;;;;;;1.17;0.70;;;;;;;3.22;78.52;93567.81;5034239;28;20213;-60
2021/12/07 04:31:57;;;;;;;0.70;0.70;;;;;;;3.17;78.29;93564.84;5036101;28;20229;-62
2021/12/07 04:34:22;;;;;;;1.17;0.87;;;;;;;3.16;78.66;93566.63;5039656;28;20226;-61
2021/12/07 04:36:48;;;;;;;1.03;0.70;;;;;;;3.04;78.63;93557.34;5031490;28;20221;-60
2021/12/07 04:39:14;;;;;;;1.93;0.90;;;;;;;3.05;78.87;93565.00;5037640;28;20317;-61
2021/12/07 04:41:42;;;;;;;1.30;1.00;;;;;;;2.88;78.96;93557.94;5041410;28;20222;-60
2021/12/07 04:44:08;;;;;;;1.47;0.77;;;;;;;2.90;80.00;93568.19;5039107;28;20198;-60
2021/12/07 05:00:06;;;;;;;1.03;0.90;;;;;;;2.72;78.85;93566.31;5042230;28;20236;-60
2021/12/07 05:02:34;;;;;;;0.80;0.77;;;;;;;2.62;78.83;93566.34;5045314;28;20205;-59
2021/12/07 05:04:59;;;;;;;1.80;0.80;;;;;;;2.55;78.49;93573.06;5045984;28;20210;-60
2021/12/07 05:07:32;;;;;;;1.83;0.80;;;;;;;2.61;78.84;93569.06;5054340;28;20218;-60
2021/12/07 05:12:40;;;;;;;0.70;0.70;;;;;;;2.55;79.00;93573.06;5035095;28;20222;-59
2021/12/07 05:39:32;;;;;;;1.20;1.10;;;;;;;2.21;78.74;93560.50;5038376;28;20228;-60
2021/12/07 05:41:57;;;;;;;1.50;1.27;;;;;;;2.10;78.56;93559.84;5047194;28;20218;-60
2021/12/07 05:44:23;;;;;;;2.10;1.30;;;;;;;2.05;79.44;93551.66;5047464;28;20225;-60
2021/12/07 05:46:48;;;;;;;2.37;1.20;;;;;;;2.08;78.89;93562.56;5037078;28;20233;-60
2021/12/07 05:49:14;;;;;;;1.47;1.27;;;;;;;2.01;78.91;93553.69;5036677;28;20226;-60
2021/12/07 05:51:39;;;;;;;1.30;1.20;;;;;;;2.00;79.11;93549.44;5038922;28;20233;-60
2021/12/07 05:54:05;;;;;;;1.80;1.43;;;;;;;2.09;78.98;93553.84;5044360;28;20354;-60
2021/12/07 05:56:30;;;;;;;1.27;1.17;;;;;;;2.11;79.14;93543.31;5035537;28;20222;-60
2021/12/07 05:58:56;;;;;;;1.70;1.47;;;;;;;2.05;78.83;93549.88;5042741;28;20221;-61
2021/12/07 06:01:22;;;;;;;1.67;1.53;;;;;;;1.97;79.07;93567.88;5045784;28;20226;-60
2021/12/07 06:03:47;;;;;;;1.50;1.40;;;;;;;1.90;78.96;93574.59;5044706;28;20222;-60
2021/12/07 06:06:13;;;;;;;2.90;1.40;;;;;;;1.91;79.12;93556.28;5040490;28;20230;-61
2021/12/07 06:08:38;;;;;;;1.67;1.40;;;;;;;1.84;79.18;93559.53;5046778;28;20221;-61
2021/12/07 06:11:04;;;;;;;3.67;1.27;;;;;;;1.75;79.75;93563.78;5043701;28;20215;-61
2021/12/07 06:13:30;;;;;;;1.83;1.40;;;;;;;1.66;79.55;93562.81;5044591;28;20229;-60
2021/12/07 06:15:57;;;;;;;2.60;1.50;;;;;;;1.65;80.24;93566.34;5045381;28;20209;-59
2021/12/07 06:18:22;;;;;;;1.30;1.20;;;;;;;1.64;79.53;93564.72;5036868;28;20280;-59
2021/12/07 06:20:48;;;;;;;3.53;1.30;;;;;;;1.74;79.50;93559.56;5041889;28;20226;-60
2021/12/07 06:23:18;;;;;;;1.70;1.53;;;;;;;1.75;79.16;93567.19;5044749;28;20221;-61
2021/12/07 06:25:46;;;;;;;2.77;1.20;;;;;;;1.80;79.29;93559.00;5037651;28;20202;-59
2021/12/07 06:28:12;;;;;;;1.57;1.47;;;;;;;1.75;79.00;93566.38;5037297;28;20246;-59
2021/12/07 06:30:37;;;;;;;1.17;1.07;;;;;;;1.76;78.96;93555.88;5043380;28;20210;-62
2021/12/07 06:33:03;;;;;;;1.50;1.20;;;;;;;1.67;78.84;93564.44;5034242;28;20245;-60
2021/12/07 06:35:28;;;;;;;1.20;1.10;;;;;;;1.74;78.93;93556.97;5044791;28;20210;-58
2021/12/07 06:37:54;;;;;;;1.13;1.03;;;;;;;1.74;78.66;93557.78;5038636;28;20233;-63
2021/12/07 06:40:20;;;;;;;1.50;1.20;;;;;;;1.65;79.28;93552.56;5043560;28;20287;-62
2021/12/07 06:42:45;;;;;;;1.23;1.13;;;;;;;1.70;78.52;93551.22;5043827;28;20260;-60
2021/12/07 06:45:11;;;;;;;1.63;1.30;;;;;;;1.73;78.69;93557.91;5032978;28;20213;-60
2021/12/07 06:47:37;;;;;;;1.20;1.10;;;;;;;1.82;78.50;93562.28;5042543;28;20218;-60
2021/12/07 06:50:04;;;;;;;1.33;1.23;;;;;;;1.91;78.61;93566.66;5035520;28;20221;-60
2021/12/07 06:52:30;;;;;;;2.00;1.80;;;;;;;1.93;77.94;93559.56;5045058;28;20225;-63
2021/12/07 06:54:57;;;;;;;2.23;1.30;;;;;;;1.89;78.28;93562.56;5041527;28;20226;-60
2021/12/07 06:57:23;;;;;;;2.87;1.67;;;;;;;1.94;78.01;93562.97;5038746;28;20241;-60
2021/12/07 06:59:48;;;;;;;1.73;1.50;;;;;;;1.81;77.97;93563.22;5039458;28;20233;-60
2021/12/07 07:02:14;;;;;;;1.93;1.60;;;;;;;1.69;78.62;93557.34;5040148;28;20233;-56
2021/12/07 07:04:39;;;;;;;1.93;1.50;;;;;;;1.54;78.58;93558.69;5041056;28;20252;-60
2021/12/07 07:07:05;;;;;;;1.73;1.50;;;;;;;1.58;79.31;93557.47;5038648;28;20240;-60
2021/12/07 07:09:31;;;;;;;2.27;2.07;;;;;;;1.51;79.60;93561.53;5041638;28;20242;-60
2021/12/07 07:11:56;;;;;;;2.93;1.70;;;;;;;1.53;78.90;93554.47;5039798;28;20217;-61
2021/12/07 07:14:22;;;;;;;4.57;1.93;;;;;;;1.61;79.00;93564.97;5041592;28;20316;-60
2021/12/07 07:16:47;;;;;;;1.87;1.67;;;;;;;1.68;78.88;93560.88;5039627;28;20222;-61
2021/12/07 07:19:13;;;;;;;2.17;1.80;;;;;;;1.59;79.00;93560.88;5038209;28;20218;-60
2021/12/07 07:21:39;;;;;;;2.53;1.70;;;;;;;1.56;79.15;93559.38;5032321;28;20347;-64
2021/12/07 07:24:04;;;;;;;2.23;1.70;;;;;;;1.47;78.91;93562.75;5055353;28;20238;-61
2021/12/07 07:26:30;;;;;;;2.10;1.90;;;;;;;1.38;79.28;93573.91;5041927;28;20214;-61
2021/12/07 07:28:56;;;;;;;1.67;1.50;;;;;;;1.28;79.45;93561.78;5037205;28;20214;-61
2021/12/07 07:31:22;;;;;;;1.80;1.70;;;;;;;1.22;80.79;93559.69;5040692;28;20287;-61
2021/12/07 07:33:47;;;;;;;1.67;1.57;;;;;;;1.33;80.61;93556.97;5040310;28;20229;-61
2021/12/07 07:36:13;;;;;;;2.00;1.40;;;;;;;1.15;81.03;93557.75;5038521;28;20229;-61
2021/12/07 07:38:38;;;;;;;2.00;1.83;;;;;;;1.13;81.18;93559.66;5043677;28;20239;-61
2021/12/07 07:41:04;;;;;;;1.83;1.73;;;;;;;1.15;81.32;93548.22;5043552;28;20275;-61
2021/12/07 07:43:30;;;;;;;1.50;1.40;;;;;;;1.07;81.24;93555.84;5034575;28;20213;-61
2021/12/07 07:45:56;;;;;;;2.13;1.70;;;;;;;1.14;81.42;93566.47;5039421;28;20222;-62
2021/12/07 07:48:22;;;;;;;2.17;1.80;;;;;;;1.28;81.41;93566.94;5043716;28;20322;-62
2021/12/07 07:50:50;;;;;;;1.63;1.53;;;;;;;1.18;80.32;93570.44;5033443;28;20279;-63
2021/12/07 07:53:15;;;;;;;1.60;1.50;;;;;;;1.10;80.66;93555.56;5031830;28;20190;-61
2021/12/07 07:55:42;;;;;;;1.57;1.47;;;;;;;1.12;80.92;93553.66;5042065;28;20240;-61
2021/12/07 07:58:09;;;;;;;2.93;1.80;;;;;;;1.04;81.79;93556.06;5033023;28;20268;-61
2021/12/07 08:00:35;;;;;;;1.60;1.50;;;;;;;1.06;81.96;93549.81;5044716;28;20251;-61
2021/12/07 08:03:01;;;;;;;1.50;1.40;;;;;;;1.20;81.90;93553.00;5040746;28;20222;-61
2021/12/07 08:05:26;;;;;;;1.50;1.40;;;;;;;1.12;81.93;93561.41;5037723;28;20248;-61
2021/12/07 08:07:52;;;;;;;1.97;1.70;;;;;;;1.17;81.56;93543.72;5043134;28;20206;-60
2021/12/07 08:10:28;;;;;;;2.10;1.73;;;;;;;1.22;81.18;93554.50;5042315;28;20285;-61
2021/12/07 08:12:58;;;;;;;1.80;1.63;;;;;;;1.23;80.95;93560.50;5040694;28;20225;-61
2021/12/07 08:15:29;;;;;;;1.73;1.37;;;;;;;1.12;81.50;93558.00;5041525;28;20225;-61
2021/12/07 08:17:56;;;;;;;1.57;1.47;;;;;;;1.07;81.78;93561.00;5043363;28;20222;-61
2021/12/07 08:20:22;;;;;;;2.00;1.60;;;;;;;1.09;81.96;93574.63;5042947;28;20205;-61
2021/12/07 08:22:48;;;;;;;1.80;1.67;;;;;;;1.03;81.84;93568.19;5041973;28;20205;-61
2021/12/07 08:25:14;;;;;;;1.50;1.40;;;;;;;1.02;82.34;93563.16;5038694;28;20229;-63
2021/12/07 08:27:40;;;;;;;1.70;1.60;;;;;;;1.11;81.52;93564.97;5034992;28;20221;-63
2021/12/07 08:30:09;;;;;;;2.73;1.80;;;;;;;1.13;81.57;93570.84;5036317;28;20244;-63
2021/12/07 08:32:34;;;;;;;3.00;1.80;;;;;;;1.03;82.42;93567.38;5035123;28;20219;-61
2021/12/07 08:35:00;;;;;;;1.97;1.70;;;;;;;1.14;81.61;93567.28;5040108;28;20220;-61
2021/12/07 08:37:26;;;;;;;1.43;1.33;;;;;;;1.05;81.39;93578.44;5042368;28;20298;-61
2021/12/07 08:39:51;;;;;;;1.70;1.60;;;;;;;1.02;81.74;93584.69;5042789;28;20230;-62
2021/12/07 08:42:19;;;;;;;1.90;1.50;;;;;;;1.03;82.05;93585.50;5044506;28;20267;-60
2021/12/07 08:44:45;;;;;;;1.60;1.50;;;;;;;0.96;82.15;93574.03;5042360;28;20214;-62
2021/12/07 08:47:11;;;;;;;7.17;1.83;;;;;;;0.93;81.92;93569.09;5037166;28;20205;-61
2021/12/07 08:49:36;;;;;;;1.40;1.30;;;;;;;0.98;81.68;93585.88;5040916;28;20241;-62
2021/12/07 08:52:03;;;;;;;1.80;1.60;;;;;;;1.03;82.29;93601.03;5039687;28;20230;-61
2021/12/07 08:59:45;;;;;;;1.97;1.77;;;;;;;1.04;81.38;93600.06;5035322;28;20263;-60
2021/12/07 09:02:17;;;;;;;2.10;1.90;;;;;;;1.01;81.97;93606.31;5050059;28;20221;-61
2021/12/07 09:04:44;;;;;;;1.80;1.70;;;;;;;0.98;81.45;93611.75;5036731;28;20222;-62
2021/12/07 09:07:10;;;;;;;1.70;1.60;;;;;;;1.03;82.08;93598.44;5044360;28;20280;-61
2021/12/07 09:09:36;;;;;;;3.43;1.77;;;;;;;1.02;81.46;93607.16;5037345;28;20235;-63
2021/12/07 09:12:06;;;;;;;2.27;1.90;;;;;;;1.00;82.27;93616.81;5042598;28;20226;-62
2021/12/07 09:14:34;;;;;;;2.90;1.90;;;;;;;0.95;81.95;93608.63;5041454;28;20206;-64
2021/12/07 09:17:00;;;;;;;1.93;1.73;;;;;;;0.96;82.64;93599.91;5040024;28;20228;-64
2021/12/07 09:19:26;;;;;;;2.50;1.90;;;;;;;1.03;82.29;93598.44;5041947;28;20219;-62
2021/12/07 09:21:52;;;;;;;2.00;1.80;;;;;;;1.00;82.29;93601.28;5038879;28;20241;-62
2021/12/07 09:24:18;;;;;;;1.40;1.30;;;;;;;0.98;82.01;93596.22;5038931;28;20214;-61
2021/12/07 09:26:43;;;;;;;2.00;1.90;;;;;;;1.06;82.11;93598.19;5044334;28;20222;-61
2021/12/07 09:29:09;;;;;;;1.90;1.70;;;;;;;0.98;81.98;93596.22;5040211;28;20186;-61
2021/12/07 09:31:36;;;;;;;2.73;1.77;;;;;;;0.88;82.29;93587.59;5041805;28;20276;-62
2021/12/07 09:34:02;;;;;;;2.40;2.20;;;;;;;0.95;82.03;93590.50;5042750;28;20227;-62
2021/12/07 09:36:28;;;;;;;2.33;2.03;;;;;;;1.09;82.67;93582.38;5039926;28;20222;-62
2021/12/07 09:38:54;;;;;;;2.90;1.87;;;;;;;1.21;82.02;93596.88;5043495;28;20226;-62
2021/12/07 09:41:20;;;;;;;3.43;1.90;;;;;;;1.22;81.44;93585.56;5047401;28;20218;-62
2021/12/07 09:43:46;;;;;;;2.40;1.87;;;;;;;1.29;80.92;93585.88;5040467;28;20225;-62
2021/12/07 09:46:12;;;;;;;2.00;1.80;;;;;;;1.37;80.52;93578.28;5040586;28;20356;-62
2021/12/07 09:48:40;;;;;;;3.27;1.93;;;;;;;1.38;80.12;93572.13;5046627;28;20224;-61
2021/12/07 09:51:07;;;;;;;2.57;1.90;;;;;;;1.39;80.04;93580.72;5040113;28;20221;-62
2021/12/07 09:53:35;;;;;;;1.70;1.60;;;;;;;1.38;79.65;93587.69;5035058;28;20253;-63
2021/12/07 09:56:04;;;;;;;2.07;1.87;;;;;;;1.30;79.60;93577.97;5046763;28;20226;-63
2021/12/07 09:58:30;;;;;;;2.40;1.70;;;;;;;1.24;80.14;93577.69;5043584;28;20226;-61
2021/12/07 10:00:55;;;;;;;2.77;2.30;;;;;;;1.40;79.54;93574.59;5040845;28;20233;-61
2021/12/07 10:03:23;;;;;;;2.10;1.90;;;;;;;1.48;79.96;93579.94;5043040;28;20222;-62
2021/12/07 10:05:49;;;;;;;2.50;2.07;;;;;;;1.50;79.16;93586.63;5040128;28;20219;-63
2021/12/07 10:08:15;;;;;;;2.30;2.03;;;;;;;1.66;79.43;93585.31;5040637;28;20225;-61
2021/12/07 10:10:45;;;;;;;2.33;2.10;;;;;;;1.77;78.02;93574.81;5044751;28;20248;-61
2021/12/07 10:13:12;;;;;;;2.40;2.10;;;;;;;1.65;78.58;93581.88;5042843;28;20229;-64
2021/12/07 10:15:38;;;;;;;3.13;2.40;;;;;;;1.71;78.75;93577.94;5037669;28;20223;-63
2021/12/07 10:18:13;;;;;;;2.83;2.50;;;;;;;1.65;79.16;93568.94;5042539;28;20217;-67
2021/12/07 10:20:48;;;;;;;3.37;2.60;;;;;;;1.86;78.38;93570.59;5039768;28;20237;-62
2021/12/07 10:23:13;;;;;;;2.77;2.20;;;;;;;1.93;78.07;93569.13;5052042;28;20196;-63
2021/12/07 10:25:40;;;;;;;3.20;2.40;;;;;;;1.92;77.46;93565.69;5046646;28;20221;-63
2021/12/07 10:28:28;;;;;;;2.53;2.33;;;;;;;1.97;76.98;93554.91;5038311;28;20233;-62
2021/12/07 10:30:56;;;;;;;2.70;2.50;;;;;;;1.89;77.52;93555.59;5036145;28;20230;-62
2021/12/07 10:33:36;;;;;;;2.40;2.20;;;;;;;1.79;77.62;93556.53;5041979;28;20281;-62
2021/12/07 10:36:30;;;;;;;2.40;2.20;;;;;;;1.95;77.36;93560.25;5035584;28;20239;-61
2021/12/07 10:39:02;;;;;;;2.50;2.30;;;;;;;2.08;77.19;93556.56;5038867;28;20253;-63
2021/12/07 10:41:32;;;;;;;3.80;2.83;;;;;;;2.11;76.84;93558.88;5029236;28;20209;-63
2021/12/07 10:44:14;;;;;;;3.10;2.80;;;;;;;2.01;77.07;93555.47;5032233;28;20302;-60
2021/12/07 10:46:42;;;;;;;4.90;2.50;;;;;;;1.94;76.77;93558.59;5035738;28;20206;-61
2021/12/07 10:49:51;;;;;;;3.37;2.80;;;;;;;1.74;77.01;93564.72;5030031;28;20245;-61
2021/12/07 10:52:29;;;;;;;2.67;2.47;;;;;;;1.58;78.09;93565.25;4976305;28;20227;-61
2021/12/07 10:55:09;;;;;;;3.27;2.37;;;;;;;1.48;78.45;93561.81;4980959;28;20231;-62
2021/12/07 10:57:35;;;;;;;2.50;2.30;;;;;;;1.29;78.81;93570.34;4979100;28;20351;-65
2021/12/07 11:00:29;;;;;;;2.40;2.20;;;;;;;1.38;78.75;93559.19;4982487;28;20223;-62
2021/12/07 11:03:02;;;;;;;2.30;2.10;;;;;;;1.68;77.89;93540.16;4983083;28;20240;-61
2021/12/07 11:05:39;;;;;;;2.50;2.30;;;;;;;1.59;77.17;93543.56;4967397;28;20215;-60
2021/12/07 11:08:06;;;;;;;2.57;2.37;;;;;;;1.51;77.59;93525.28;4970166;28;20211;-60
2021/12/07 11:10:36;;;;;;;3.13;2.80;;;;;;;1.65;77.74;93529.25;4972166;28;20236;-60
2021/12/07 11:15:49;;;;;;;3.37;2.43;;;;;;;1.76;77.20;93527.38;4982386;28;20232;-61
2021/12/07 11:18:17;;;;;;;2.77;2.20;;;;;;;1.69;76.78;93522.84;4964604;28;20246;-62
2021/12/07 11:20:42;;;;;;;2.20;2.00;;;;;;;1.59;76.96;93525.44;4967513;28;20230;-61
2021/12/07 11:23:16;;;;;;;1.80;1.60;;;;;;;1.55;76.63;93524.03;4967396;28;20210;-61
2021/12/07 11:31:25;;;;;;;2.97;2.47;;;;;;;1.44;77.55;93535.34;5022161;28;20225;-60
2021/12/07 11:33:53;;;;;;;2.97;2.37;;;;;;;1.54;77.33;93530.19;5019349;28;20218;-61
2021/12/07 11:36:30;;;;;;;3.40;3.00;;;;;;;1.78;77.29;93522.03;5021744;28;20286;-60
2021/12/07 11:38:56;;;;;;;2.33;2.13;;;;;;;1.89;76.50;93521.09;5018075;28;20241;-60
2021/12/07 11:41:31;;;;;;;2.73;2.40;;;;;;;1.82;76.10;93532.94;5020184;28;20226;-60
2021/12/07 11:44:06;;;;;;;1.73;1.57;;;;;;;1.64;76.50;93533.63;5017412;28;20202;-61
2021/12/07 11:46:35;;;;;;;1.50;1.33;;;;;;;1.62;76.30;93529.53;5017710;28;20226;-60
2021/12/07 11:49:20;;;;;;;1.83;1.73;;;;;;;1.61;76.50;93527.91;5022077;28;20229;-61
2021/12/07 11:51:47;;;;;;;1.70;1.60;;;;;;;1.35;76.95;93553.47;5023213;28;20218;-61
2021/12/07 11:54:15;;;;;;;1.77;1.67;;;;;;;1.38;76.60;93538.47;5023064;28;20275;-60
2021/12/07 11:56:41;;;;;;;1.93;1.70;;;;;;;1.33;76.94;93528.50;5038390;28;20302;-61
2021/12/07 11:59:08;;;;;;;1.83;1.67;;;;;;;1.33;77.27;93519.91;5035986;28;20198;-60
2021/12/07 12:01:34;;;;;;;2.03;1.83;;;;;;;1.35;77.85;93528.38;5041427;28;20260;-61
2021/12/07 12:04:01;;;;;;;1.63;1.53;;;;;;;1.31;77.17;93540.78;5040628;28;20222;-60
2021/12/07 12:06:27;;;;;;;1.93;1.50;;;;;;;1.24;76.71;93542.25;5042742;28;20281;-62
2021/12/07 12:08:54;;;;;;;2.60;2.10;;;;;;;1.18;77.80;93537.59;5038049;28;20226;-60
2021/12/07 12:11:32;;;;;;;2.27;1.90;;;;;;;1.17;78.22;93535.94;5037873;28;20201;-61
2021/12/07 12:14:35;;;;;;;2.47;2.27;;;;;;;1.36;78.34;93531.78;5043236;28;20263;-61
2021/12/07 12:17:31;;;;;;;2.10;1.90;;;;;;;1.36;77.42;93532.59;5043442;28;20236;-61
2021/12/07 12:20:34;;;;;;;2.13;1.90;;;;;;;1.43;76.43;93538.88;5028513;28;20229;-62
2021/12/07 12:23:02;;;;;;;2.93;2.13;;;;;;;1.21;76.77;93536.53;5043322;28;20232;-61
2021/12/07 12:25:28;;;;;;;2.30;2.10;;;;;;;1.26;76.85;93522.22;5042309;28;20280;-61
2021/12/07 12:27:55;;;;;;;2.20;1.93;;;;;;;1.25;76.90;93504.22;5042939;28;20222;-61
2021/12/07 12:30:21;;;;;;;2.23;2.10;;;;;;;1.17;77.05;93524.78;5041354;28;20237;-60
2021/12/07 12:32:54;;;;;;;2.27;2.10;;;;;;;1.22;76.84;93510.50;5039424;28;20268;-62
2021/12/07 12:35:40;;;;;;;2.60;2.40;;;;;;;1.25;76.74;93518.00;5037956;28;20212;-61
2021/12/07 12:38:28;;;;;;;2.43;2.23;;;;;;;1.27;76.08;93521.28;5025664;28;20269;-64
2021/12/07 12:41:07;;;;;;;2.33;2.13;;;;;;;1.28;76.35;93522.09;5034666;28;20230;-62
2021/12/07 12:43:40;;;;;;;2.67;2.47;;;;;;;1.28;76.67;93517.75;5039764;28;20213;-62
2021/12/07 12:46:09;;;;;;;3.20;2.90;;;;;;;1.35;76.52;93530.16;5032587;28;20228;-62
2021/12/07 12:48:35;;;;;;;3.03;2.70;;;;;;;1.31;76.36;93530.44;5040599;28;20238;-64
2021/12/07 12:51:01;;;;;;;2.90;2.70;;;;;;;1.31;76.71;93533.00;5043285;28;20229;-63
2021/12/07 12:53:34;;;;;;;2.40;2.20;;;;;;;1.30;76.02;93535.72;5037286;28;20214;-62
2021/12/07 12:56:02;;;;;;;2.23;2.07;;;;;;;1.22;75.65;93538.97;5030717;28;20254;-62
2021/12/07 12:58:28;;;;;;;2.30;2.10;;;;;;;1.20;75.86;93540.03;5038326;28;20280;-63
2021/12/07 13:01:09;;;;;;;3.13;2.43;;;;;;;1.12;76.47;93542.47;5037657;28;20252;-63
2021/12/07 13:04:09;;;;;;;2.23;2.07;;;;;;;1.04;76.79;93531.03;5038282;28;20252;-64
2021/12/07 13:06:44;;;;;;;2.00;1.80;;;;;;;0.94;76.62;93537.94;4969362;28;20255;-64
2021/12/07 13:09:18;;;;;;;2.53;2.33;;;;;;;1.14;76.19;93546.56;4981109;28;20262;-63
2021/12/07 13:11:51;;;;;;;2.37;2.17;;;;;;;1.03;76.80;93541.50;4981516;28;20238;-65
2021/12/07 13:14:19;;;;;;;2.97;2.03;;;;;;;1.02;76.22;93537.28;4980989;28;20231;-63
2021/12/07 13:16:51;;;;;;;4.80;3.70;;;;;;;0.99;77.06;93540.09;4962489;28;20223;-66
2021/12/07 13:19:17;;;;;;;2.90;2.47;;;;;;;1.00;77.15;93539.19;4982974;28;20230;-64
2021/12/07 13:21:45;;;;;;;3.03;2.70;;;;;;;0.91;77.32;93539.94;4965862;28;20224;-64
2021/12/07 13:24:20;;;;;;;3.00;2.70;;;;;;;1.03;77.25;93544.09;4967002;28;20240;-65
2021/12/07 13:26:52;;;;;;;3.20;2.90;;;;;;;1.04;77.27;93545.72;4969551;28;20224;-66
2021/12/07 13:29:26;;;;;;;2.30;2.10;;;;;;;0.96;77.11;93554.13;4964666;28;20296;-65
2021/12/07 13:31:57;;;;;;;2.70;2.50;;;;;;;0.95;76.90;93546.50;4970504;28;20263;-64
2021/12/07 13:34:31;;;;;;;2.40;2.20;;;;;;;0.97;76.58;93555.78;4968925;28;20232;-65
2021/12/07 13:36:58;;;;;;;3.10;2.87;;;;;;;0.86;76.92;93551.50;4984581;28;20223;-65
2021/12/07 13:39:24;;;;;;;3.17;2.87;;;;;;;0.84;77.46;93556.00;4968566;28;20231;-65
2021/12/07 13:42:00;;;;;;;3.27;2.60;;;;;;;0.96;77.27;93551.53;4968917;28;20243;-64
2021/12/07 13:44:27;;;;;;;3.13;2.70;;;;;;;0.98;76.33;93552.25;5040861;28;20216;-65